Time;durP1;ratioP1;P1;durP2;ratioP2;P2;SDS_P1;SDS_P2;PMS_P1;PMS_P2;Temp;Humidity;BMP_temperature;BMP_pressure;BME280_temperature;BME280_humidity;BME280_pressure;Samples;Min_cycle;Max_cycle;Signal;HPM_P1;HPM_P2
2022/02/21 00:00:41;;;;;;;6.57;0.50;;;;;;;2.10;65.59;98444.47;4980798;28;20721;-82
2022/02/21 00:03:07;;;;;;;5.13;0.30;;;;;;;2.73;64.11;98521.59;4986072;28;20046;-80
2022/02/21 00:05:34;;;;;;;6.53;0.10;;;;;;;2.50;63.55;98499.44;4994856;28;20061;-81
2022/02/21 00:08:00;;;;;;;5.82;0.35;;;;;;;2.42;64.48;98493.78;4999079;28;20462;-82
2022/02/21 00:10:26;;;;;;;15.65;1.02;;;;;;;2.41;63.89;98495.50;4978925;28;20212;-79
2022/02/21 00:12:52;;;;;;;9.95;0.63;;;;;;;2.46;63.71;98524.50;4998446;28;20046;-83
2022/02/21 00:15:23;;;;;;;6.32;0.60;;;;;;;2.38;63.89;98520.59;4980716;28;20427;-80
2022/02/21 00:17:52;;;;;;;10.20;1.13;;;;;;;2.51;62.86;98555.25;4987461;28;20044;-83
2022/02/21 00:20:18;;;;;;;12.75;0.88;;;;;;;2.11;63.96;98564.72;4977638;28;20467;-80
2022/02/21 00:22:44;;;;;;;15.00;1.58;;;;;;;1.74;63.29;98561.06;4979762;28;20493;-80
2022/02/21 00:25:10;;;;;;;10.48;0.98;;;;;;;1.43;63.60;98575.16;4977266;28;20034;-83
2022/02/21 00:27:36;;;;;;;9.93;0.82;;;;;;;1.81;62.84;98577.94;4960749;28;20552;-81
2022/02/21 00:30:05;;;;;;;8.50;0.38;;;;;;;2.56;60.69;98558.47;4973561;28;20034;-81
2022/02/21 00:32:31;;;;;;;7.78;0.70;;;;;;;1.90;62.32;98564.66;4979323;28;20064;-78
2022/02/21 00:34:57;;;;;;;11.70;1.55;;;;;;;2.41;60.84;98592.66;4977982;28;20038;-80
2022/02/21 00:37:23;;;;;;;9.95;1.80;;;;;;;2.21;61.38;98591.75;4987361;28;20045;-80
2022/02/21 00:39:49;;;;;;;11.95;0.73;;;;;;;2.26;61.79;98623.31;4977086;28;20021;-82
2022/02/21 00:42:16;;;;;;;12.85;0.80;;;;;;;2.33;60.92;98611.00;4982775;28;20462;-82
2022/02/21 00:44:42;;;;;;;4.57;0.45;;;;;;;2.11;61.86;98619.66;4983251;28;20042;-81
2022/02/21 00:47:08;;;;;;;7.20;1.20;;;;;;;2.07;61.79;98604.38;4966274;28;20100;-79
2022/02/21 00:49:34;;;;;;;8.52;0.65;;;;;;;2.42;60.19;98609.78;4987908;28;20041;-81
2022/02/21 00:52:01;;;;;;;14.82;1.73;;;;;;;2.20;60.16;98615.88;5000326;28;20119;-80
2022/02/21 00:54:27;;;;;;;7.60;0.95;;;;;;;2.22;60.01;98619.22;5000297;28;20034;-82
2022/02/21 00:56:54;;;;;;;12.75;1.00;;;;;;;2.20;60.02;98631.34;4989774;28;20135;-81
2022/02/21 00:59:19;;;;;;;6.10;0.28;;;;;;;2.40;59.28;98645.09;4981665;28;20034;-81
2022/02/21 01:01:45;;;;;;;13.27;0.82;;;;;;;1.98;60.47;98635.69;4985235;28;20819;-82
2022/02/21 01:04:10;;;;;;;21.58;1.23;;;;;;;1.89;60.08;98645.44;4982499;28;20030;-81
2022/02/21 01:06:36;;;;;;;6.80;0.68;;;;;;;2.27;59.06;98658.53;4971017;28;20045;-77
2022/02/21 01:09:02;;;;;;;5.47;1.70;;;;;;;2.22;58.72;98654.44;4984342;28;20133;-81
2022/02/21 01:11:30;;;;;;;10.98;0.85;;;;;;;2.40;58.33;98658.88;4984376;28;20034;-81
2022/02/21 01:13:59;;;;;;;10.77;0.68;;;;;;;1.77;59.75;98666.53;4982478;28;20087;-79
2022/02/21 01:16:25;;;;;;;20.95;1.60;;;;;;;2.19;59.06;98670.88;4982297;28;20033;-84
2022/02/21 01:18:52;;;;;;;27.70;2.63;;;;;;;2.22;59.05;98663.03;4980904;28;20042;-79
2022/02/21 01:21:18;;;;;;;20.95;2.35;;;;;;;2.19;58.57;98691.50;4982001;28;20577;-80
2022/02/21 01:23:44;;;;;;;25.08;2.72;;;;;;;2.43;57.55;98688.84;4977891;28;20097;-81
2022/02/21 01:26:10;;;;;;;20.05;1.70;;;;;;;2.19;58.04;98698.41;5004584;28;20219;-81
2022/02/21 01:28:35;;;;;;;18.50;1.63;;;;;;;1.96;58.69;98689.84;4976304;28;20031;-80
2022/02/21 01:31:01;;;;;;;27.15;2.78;;;;;;;1.92;58.32;98696.84;4978639;28;20041;-82
2022/02/21 01:33:28;;;;;;;19.15;2.13;;;;;;;2.74;56.95;98709.84;4981980;28;20041;-80
2022/02/21 01:35:57;;;;;;;25.25;2.35;;;;;;;1.89;59.11;98725.31;4977152;28;20045;-80
2022/02/21 01:38:23;;;;;;;21.25;1.70;;;;;;;1.83;59.68;98735.00;4978221;28;20042;-81
2022/02/21 01:40:49;;;;;;;16.23;1.48;;;;;;;1.48;60.90;98722.56;4994585;28;20065;-82
2022/02/21 01:43:15;;;;;;;21.38;2.28;;;;;;;1.57;60.73;98733.41;4996470;28;20049;-81
2022/02/21 01:45:40;;;;;;;21.13;3.53;;;;;;;1.88;60.40;98746.81;4981125;28;20037;-82
2022/02/21 01:48:06;;;;;;;18.88;3.30;;;;;;;1.90;60.30;98741.59;4987797;28;20045;-80
2022/02/21 01:50:31;;;;;;;20.10;2.67;;;;;;;2.05;59.05;98745.34;5005775;28;20975;-78
2022/02/21 01:52:58;;;;;;;19.52;3.10;;;;;;;2.03;58.21;98744.56;4963118;28;20148;-81
2022/02/21 01:55:25;;;;;;;33.50;2.55;;;;;;;1.82;57.82;98738.47;4977489;28;20337;-83
2022/02/21 01:57:50;;;;;;;14.73;1.38;;;;;;;2.17;56.95;98778.34;5000446;28;20152;-78
2022/02/21 02:00:17;;;;;;;20.08;2.00;;;;;;;0.92;58.72;98776.81;4980853;28;20409;-80
2022/02/21 02:02:46;;;;;;;15.90;2.63;;;;;;;0.39;60.71;98818.81;4975371;28;20496;-81
2022/02/21 02:05:19;;;;;;;24.55;2.20;;;;;;;-0.28;62.83;98774.59;4983269;28;20037;-81
2022/02/21 02:07:45;;;;;;;16.25;1.98;;;;;;;0.34;61.29;98782.13;4982226;28;20038;-78
2022/02/21 02:10:15;;;;;;;23.55;2.25;;;;;;;1.10;59.79;98796.81;4980804;28;20536;-81
2022/02/21 02:12:41;;;;;;;23.42;2.40;;;;;;;0.95;60.36;98794.75;4978135;28;20060;-81
2022/02/21 02:15:15;;;;;;;32.47;4.05;;;;;;;1.35;59.12;98806.25;4980779;28;20053;-82
2022/02/21 02:17:41;;;;;;;28.88;1.60;;;;;;;1.61;57.95;98800.19;4983101;28;20456;-81
2022/02/21 02:20:07;;;;;;;9.55;1.73;;;;;;;1.16;58.54;98810.34;4999034;28;20034;-81
2022/02/21 02:22:33;;;;;;;28.13;2.63;;;;;;;1.51;58.00;98802.25;4984088;28;20404;-83
2022/02/21 02:24:59;;;;;;;23.15;2.05;;;;;;;1.28;57.24;98815.06;4987014;28;20037;-81
2022/02/21 02:27:25;;;;;;;17.13;2.58;;;;;;;1.23;56.39;98830.66;4981478;28;20042;-81
2022/02/21 02:29:54;;;;;;;18.02;2.90;;;;;;;1.31;55.61;98831.25;4985621;28;20459;-81
2022/02/21 02:32:22;;;;;;;14.60;2.00;;;;;;;1.07;55.11;98821.78;4979815;28;20045;-81
2022/02/21 02:34:49;;;;;;;11.35;2.78;;;;;;;1.05;54.10;98839.00;4983585;28;20267;-82
2022/02/21 02:37:18;;;;;;;15.98;3.08;;;;;;;1.35;53.24;98850.00;4998020;28;20060;-82
2022/02/21 02:39:44;;;;;;;12.02;1.30;;;;;;;1.10;53.44;98837.97;5006808;28;20034;-79
2022/02/21 02:42:09;;;;;;;13.57;1.27;;;;;;;1.11;53.42;98829.34;4981459;28;20045;-81
2022/02/21 02:44:35;;;;;;;18.55;2.47;;;;;;;1.16;52.98;98838.66;4984993;28;20034;-83
2022/02/21 02:47:08;;;;;;;14.80;1.23;;;;;;;1.21;51.84;98845.31;4985141;28;20063;-80
2022/02/21 02:49:34;;;;;;;11.40;1.98;;;;;;;1.21;51.99;98849.63;5000715;28;20518;-80
2022/02/21 02:52:00;;;;;;;6.53;1.10;;;;;;;1.52;51.60;98855.41;4959180;28;20029;-80
2022/02/21 02:54:25;;;;;;;14.02;2.55;;;;;;;1.61;52.03;98858.56;5004792;28;20034;-82
2022/02/21 02:56:51;;;;;;;14.85;1.33;;;;;;;1.47;52.52;98853.91;5010849;28;20114;-84
2022/02/21 02:59:17;;;;;;;12.05;1.90;;;;;;;1.09;53.72;98856.03;4997036;28;20027;-82
2022/02/21 03:01:43;;;;;;;29.15;2.78;;;;;;;1.54;53.41;98860.53;4991089;28;20045;-82
2022/02/21 03:04:09;;;;;;;15.13;2.40;;;;;;;0.74;55.02;98862.31;4988665;28;20515;-82
2022/02/21 03:06:35;;;;;;;10.13;1.15;;;;;;;0.93;54.63;98850.53;5003953;28;20033;-82
2022/02/21 03:09:02;;;;;;;19.30;1.85;;;;;;;0.89;53.81;98859.25;4989456;28;20064;-80
2022/02/21 03:11:28;;;;;;;18.40;0.80;;;;;;;1.35;52.71;98868.03;4996048;28;20156;-79
2022/02/21 03:13:55;;;;;;;15.35;1.85;;;;;;;1.05;53.20;98877.59;4972448;28;20088;-81
2022/02/21 03:16:20;;;;;;;12.35;1.50;;;;;;;0.97;52.65;98872.72;5002417;28;20041;-81
2022/02/21 03:18:46;;;;;;;18.50;2.38;;;;;;;0.96;52.70;98854.75;4992516;28;20037;-82
2022/02/21 03:21:12;;;;;;;15.73;1.27;;;;;;;1.29;51.56;98883.66;4984870;28;20351;-83
2022/02/21 03:23:37;;;;;;;17.38;2.03;;;;;;;1.07;51.86;98879.22;4993303;28;20404;-81
2022/02/21 03:26:03;;;;;;;23.30;1.55;;;;;;;1.42;50.73;98878.97;4993635;28;20026;-80
2022/02/21 03:28:28;;;;;;;14.45;2.53;;;;;;;1.16;51.40;98902.97;4987133;28;20128;-83
2022/02/21 03:30:54;;;;;;;9.82;1.13;;;;;;;0.60;53.43;98894.44;4994089;28;20040;-81
2022/02/21 03:33:21;;;;;;;13.75;2.42;;;;;;;0.95;52.98;98913.06;4985923;28;20038;-81
2022/02/21 03:35:47;;;;;;;11.55;1.95;;;;;;;1.08;52.77;98914.38;4993962;28;20096;-85
2022/02/21 03:38:13;;;;;;;10.45;1.58;;;;;;;1.01;52.40;98894.84;4991604;28;20052;-83
2022/02/21 03:40:38;;;;;;;14.00;0.77;;;;;;;1.25;51.92;98918.13;4999558;28;20079;-78
2022/02/21 03:43:04;;;;;;;14.10;1.27;;;;;;;1.28;51.51;98908.56;4960692;28;20050;-82
2022/02/21 03:45:30;;;;;;;10.18;0.90;;;;;;;1.04;51.71;98914.50;4979486;28;20034;-79
2022/02/21 03:47:55;;;;;;;14.70;0.90;;;;;;;1.37;50.93;98912.53;4994319;28;20052;-81
2022/02/21 03:50:21;;;;;;;20.20;1.42;;;;;;;1.44;51.39;98929.53;4983275;28;20030;-81
2022/02/21 03:52:47;;;;;;;18.63;2.30;;;;;;;1.37;50.77;98912.53;4998890;28;20519;-83
2022/02/21 03:55:13;;;;;;;8.07;0.77;;;;;;;1.51;50.89;98925.84;4993342;28;20049;-78
2022/02/21 03:57:39;;;;;;;10.57;1.90;;;;;;;1.17;51.02;98915.81;4971757;28;20041;-80
2022/02/21 04:00:08;;;;;;;12.35;1.73;;;;;;;1.07;51.75;98945.28;4988160;28;20030;-81
2022/02/21 04:02:41;;;;;;;12.07;1.58;;;;;;;1.19;52.32;98924.28;4989929;28;20049;-81
2022/02/21 04:05:07;;;;;;;17.75;3.15;;;;;;;0.85;53.86;98940.78;4989677;28;20595;-84
2022/02/21 04:07:33;;;;;;;14.82;1.40;;;;;;;1.01;52.79;98930.88;4999363;28;20037;-79
2022/02/21 04:09:59;;;;;;;13.95;2.03;;;;;;;0.64;52.89;98931.19;4993419;28;20101;-80
2022/02/21 04:12:25;;;;;;;14.77;1.35;;;;;;;1.37;52.13;98933.13;4996208;28;20464;-79
2022/02/21 04:14:51;;;;;;;12.10;1.50;;;;;;;1.71;51.09;98960.38;4995757;28;20318;-77
2022/02/21 04:17:16;;;;;;;18.85;2.67;;;;;;;1.24;52.10;98947.31;4967198;28;20055;-80
2022/02/21 04:19:45;;;;;;;12.13;1.13;;;;;;;0.95;51.66;98941.38;5009748;28;20025;-80
2022/02/21 04:22:11;;;;;;;29.60;2.30;;;;;;;0.98;51.17;98946.41;4994485;28;20029;-79
2022/02/21 04:24:40;;;;;;;4.53;0.88;;;;;;;1.34;51.04;98953.84;5002563;28;20069;-80
2022/02/21 04:27:06;;;;;;;21.50;1.92;;;;;;;0.93;51.75;98935.44;5001987;28;20538;-82
2022/02/21 04:29:32;;;;;;;19.00;1.65;;;;;;;0.82;52.67;98953.75;4996135;28;20030;-82
2022/02/21 04:31:58;;;;;;;12.60;1.77;;;;;;;1.05;52.59;98965.06;4973915;28;20052;-82
2022/02/21 04:34:23;;;;;;;15.30;1.85;;;;;;;1.04;52.56;98947.97;5016881;28;20038;-81
2022/02/21 04:36:49;;;;;;;9.65;2.50;;;;;;;0.85;52.92;98957.97;4997864;28;20053;-79
2022/02/21 04:39:14;;;;;;;9.73;1.63;;;;;;;0.77;52.98;98977.91;4992143;28;20292;-83
2022/02/21 04:41:41;;;;;;;12.00;0.93;;;;;;;0.99;52.18;98967.81;4978652;28;20049;-81
2022/02/21 04:44:06;;;;;;;7.07;0.98;;;;;;;1.02;51.21;98984.00;4970203;28;20035;-81
2022/02/21 04:46:32;;;;;;;14.15;1.67;;;;;;;0.38;51.17;98955.91;5000698;28;20099;-82
2022/02/21 04:48:58;;;;;;;3.58;0.57;;;;;;;0.43;51.75;98981.47;4976673;28;20041;-81
2022/02/21 04:51:25;;;;;;;4.10;0.60;;;;;;;0.18;53.18;98983.91;4993910;28;20030;-82
2022/02/21 04:53:50;;;;;;;13.93;0.93;;;;;;;0.38;52.86;98980.78;4995143;28;20052;-82
2022/02/21 04:56:16;;;;;;;9.43;1.52;;;;;;;0.41;52.82;98971.25;4994616;28;20034;-81
2022/02/21 04:58:42;;;;;;;12.05;1.33;;;;;;;0.53;53.20;98979.50;4995271;28;20625;-81
2022/02/21 05:01:07;;;;;;;17.27;1.67;;;;;;;0.40;53.26;98968.72;4983777;28;20091;-81
2022/02/21 05:03:33;;;;;;;13.43;0.95;;;;;;;0.71;52.62;98980.69;5001994;28;20483;-82
2022/02/21 05:05:58;;;;;;;15.45;2.65;;;;;;;0.99;51.80;98968.69;5000784;28;20067;-82
2022/02/21 05:08:26;;;;;;;25.55;2.22;;;;;;;0.76;52.36;98960.81;4977867;28;20042;-82
2022/02/21 05:10:52;;;;;;;8.27;1.25;;;;;;;0.86;51.70;98970.78;4988475;28;20030;-79
2022/02/21 05:13:17;;;;;;;15.70;2.58;;;;;;;0.94;51.26;98975.69;4997513;28;20057;-82
2022/02/21 05:15:43;;;;;;;22.58;2.00;;;;;;;0.99;51.07;98968.69;4997223;28;20041;-82
2022/02/21 05:18:08;;;;;;;18.08;2.90;;;;;;;1.09;51.21;98958.94;4987635;28;20400;-82
2022/02/21 05:20:34;;;;;;;21.38;1.70;;;;;;;1.16;50.94;98964.72;4989754;28;20033;-83
2022/02/21 05:23:00;;;;;;;15.32;1.40;;;;;;;1.10;50.96;98956.31;4958502;28;20045;-81
2022/02/21 05:25:25;;;;;;;11.98;1.42;;;;;;;1.22;50.61;98974.84;4998282;28;20036;-80
2022/02/21 05:27:51;;;;;;;11.82;1.45;;;;;;;0.83;52.25;98983.72;4955801;28;20042;-82
2022/02/21 05:30:17;;;;;;;21.40;2.55;;;;;;;0.66;54.17;98983.41;5010670;28;20034;-82
2022/02/21 05:32:43;;;;;;;16.05;1.30;;;;;;;0.16;54.89;98981.34;4986195;28;20565;-83
2022/02/21 05:35:09;;;;;;;22.23;1.88;;;;;;;0.47;54.66;98981.34;5000085;28;20200;-81
2022/02/21 05:37:35;;;;;;;16.77;1.60;;;;;;;0.97;53.31;98988.47;4984448;28;20042;-82
2022/02/21 05:40:01;;;;;;;10.05;2.20;;;;;;;1.02;53.54;98988.31;5020762;28;20037;-83
2022/02/21 05:42:26;;;;;;;21.88;3.30;;;;;;;0.51;54.96;98974.41;5005304;28;20135;-80
2022/02/21 05:44:52;;;;;;;12.93;1.73;;;;;;;0.50;54.80;98962.41;5019608;28;20034;-80
2022/02/21 05:47:18;;;;;;;24.05;2.53;;;;;;;0.42;55.45;98979.81;4992964;28;20053;-79
2022/02/21 05:49:43;;;;;;;19.85;2.33;;;;;;;1.06;54.25;98989.88;4978782;28;20334;-81
2022/02/21 05:52:09;;;;;;;24.98;1.92;;;;;;;1.55;52.91;98983.25;4974714;28;20030;-77
2022/02/21 05:54:34;;;;;;;13.15;1.42;;;;;;;0.57;55.33;98971.66;5017082;28;20049;-80
2022/02/21 05:57:00;;;;;;;18.58;1.70;;;;;;;0.77;55.01;98967.63;4993795;28;20045;-82
2022/02/21 05:59:26;;;;;;;15.60;2.00;;;;;;;0.60;55.54;98963.84;4994729;28;20025;-80
2022/02/21 06:01:51;;;;;;;15.90;2.75;;;;;;;0.58;55.57;98962.19;5009099;28;20033;-84
2022/02/21 06:04:17;;;;;;;21.38;3.25;;;;;;;0.84;55.28;98974.28;4993368;28;20632;-82
2022/02/21 06:06:43;;;;;;;17.75;2.45;;;;;;;0.42;55.93;98962.66;4993134;28;20038;-79
2022/02/21 06:09:08;;;;;;;22.88;1.80;;;;;;;0.53;55.47;98953.78;4984006;28;20050;-82
2022/02/21 06:11:34;;;;;;;23.42;3.22;;;;;;;0.63;55.17;98950.03;4990238;28;20100;-81
2022/02/21 06:14:00;;;;;;;19.67;1.27;;;;;;;0.41;56.44;98963.53;4986085;28;20049;-82
2022/02/21 06:16:26;;;;;;;11.57;1.65;;;;;;;0.33;55.53;98962.06;4998241;28;20050;-80
2022/02/21 06:18:51;;;;;;;15.75;1.60;;;;;;;-0.02;56.26;98961.31;4994993;28;20065;-83
2022/02/21 06:21:17;;;;;;;14.43;1.85;;;;;;;0.30;55.33;98954.44;4991927;28;20515;-82
2022/02/21 06:23:42;;;;;;;12.90;2.08;;;;;;;0.60;54.33;98950.97;4989026;28;20041;-81
2022/02/21 06:26:08;;;;;;;15.35;0.95;;;;;;;1.11;53.17;98939.97;5001483;28;20041;-82
2022/02/21 06:28:34;;;;;;;12.52;1.85;;;;;;;0.60;54.11;98940.69;4992661;28;20053;-81
2022/02/21 06:31:00;;;;;;;7.03;1.38;;;;;;;0.84;53.80;98930.56;4973128;28;20041;-81
2022/02/21 06:33:25;;;;;;;8.90;1.17;;;;;;;0.80;53.91;98936.69;4989805;28;20167;-80
2022/02/21 06:35:51;;;;;;;10.85;1.75;;;;;;;0.88;53.70;98952.72;4989153;28;20048;-81
2022/02/21 06:38:18;;;;;;;12.45;1.23;;;;;;;0.24;55.00;98963.19;4994046;28;20026;-82
2022/02/21 06:40:45;;;;;;;8.30;1.13;;;;;;;0.84;54.02;98976.88;5009065;28;20034;-79
2022/02/21 06:43:11;;;;;;;12.77;1.00;;;;;;;1.02;54.39;99004.59;4996156;28;20079;-82
2022/02/21 06:45:37;;;;;;;8.95;2.25;;;;;;;0.69;54.97;99006.44;4983071;28;20033;-80
2022/02/21 06:48:03;;;;;;;12.63;1.88;;;;;;;-0.16;57.97;99005.34;4979413;28;20098;-80
2022/02/21 06:50:29;;;;;;;10.70;0.82;;;;;;;-0.39;59.32;98999.06;4984611;28;20057;-80
2022/02/21 06:52:55;;;;;;;18.35;2.65;;;;;;;-0.03;58.74;98995.59;5003635;28;20120;-79
2022/02/21 06:55:21;;;;;;;10.60;2.38;;;;;;;-0.42;60.21;98982.88;4980843;28;20026;-80
2022/02/21 06:57:48;;;;;;;18.90;1.48;;;;;;;-0.13;59.71;98984.72;4986609;28;20474;-82
2022/02/21 07:00:16;;;;;;;22.33;2.05;;;;;;;0.24;58.66;98984.56;4984152;28;20163;-80
2022/02/21 07:02:42;;;;;;;12.50;1.48;;;;;;;-0.27;59.96;98967.09;4982920;28;20173;-80
2022/02/21 07:05:09;;;;;;;10.57;1.85;;;;;;;0.45;58.51;98990.81;4987732;28;20549;-81
2022/02/21 07:07:36;;;;;;;22.20;1.70;;;;;;;0.38;58.33;98991.06;4968209;28;20100;-80
2022/02/21 07:10:03;;;;;;;18.92;1.50;;;;;;;0.24;59.48;98982.00;4965334;28;20358;-82
2022/02/21 07:12:29;;;;;;;19.13;2.20;;;;;;;0.09;59.62;98986.72;4992319;28;20051;-81
2022/02/21 07:14:55;;;;;;;16.85;1.55;;;;;;;0.18;59.43;98978.75;4974757;28;20165;-79
2022/02/21 07:17:20;;;;;;;24.45;2.63;;;;;;;0.11;59.68;98997.78;4954317;28;20052;-79
2022/02/21 07:19:46;;;;;;;18.00;1.33;;;;;;;-0.04;59.79;99002.44;4995681;28;20499;-79
2022/02/21 07:22:12;;;;;;;21.27;1.48;;;;;;;0.07;59.80;98989.31;4984376;28;20048;-81
2022/02/21 07:24:38;;;;;;;20.10;1.73;;;;;;;0.03;60.03;98998.84;4972040;28;20128;-83
2022/02/21 07:27:03;;;;;;;13.02;2.00;;;;;;;0.74;58.16;99008.88;4956236;28;20097;-80
2022/02/21 07:29:31;;;;;;;15.05;1.52;;;;;;;0.34;58.79;99020.28;4989094;28;20060;-81
2022/02/21 07:31:57;;;;;;;22.88;1.92;;;;;;;0.63;58.27;99015.16;4987553;28;20037;-80
2022/02/21 07:34:23;;;;;;;23.88;2.92;;;;;;;0.53;58.05;99021.47;4988359;28;20481;-79
2022/02/21 07:36:49;;;;;;;30.10;1.70;;;;;;;0.38;58.17;99016.75;5016087;28;20042;-81
2022/02/21 07:39:14;;;;;;;13.13;1.67;;;;;;;0.74;57.71;99008.88;4972345;28;20053;-77
2022/02/21 07:41:40;;;;;;;16.88;1.10;;;;;;;1.05;56.90;99013.94;5001973;28;20033;-80
2022/02/21 07:44:06;;;;;;;16.50;2.40;;;;;;;0.58;58.27;99029.88;4992228;28;20050;-81
2022/02/21 07:46:32;;;;;;;16.05;3.17;;;;;;;0.83;57.52;99034.31;4994020;28;20544;-80
2022/02/21 07:48:58;;;;;;;29.33;3.35;;;;;;;0.69;57.41;99025.28;4972499;28;20049;-80
2022/02/21 07:51:23;;;;;;;23.73;1.92;;;;;;;0.67;57.03;99019.34;4980561;28;20030;-80
2022/02/21 07:53:49;;;;;;;14.07;1.17;;;;;;;0.47;57.38;99021.63;4987496;28;20401;-79
2022/02/21 07:56:15;;;;;;;7.38;1.77;;;;;;;1.07;55.81;99023.31;5000177;28;20133;-79
2022/02/21 07:58:41;;;;;;;11.98;1.50;;;;;;;0.45;57.19;99026.81;5009122;28;20053;-79
2022/02/21 08:01:06;;;;;;;19.63;2.30;;;;;;;0.69;56.12;99034.72;4987102;28;20045;-78
2022/02/21 08:03:35;;;;;;;14.80;1.85;;;;;;;0.72;56.41;99031.22;5000807;28;20048;-80
2022/02/21 08:06:00;;;;;;;10.75;1.20;;;;;;;0.51;56.48;99038.66;4979116;28;20026;-81
2022/02/21 08:08:26;;;;;;;18.05;1.63;;;;;;;0.43;56.67;99014.88;4990688;28;20046;-81
2022/02/21 08:10:52;;;;;;;17.13;1.73;;;;;;;0.75;55.58;99036.25;4998207;28;20168;-80
2022/02/21 08:13:17;;;;;;;18.38;2.45;;;;;;;1.19;54.70;99028.97;4981301;28;20120;-81
2022/02/21 08:15:43;;;;;;;11.50;1.60;;;;;;;0.86;55.50;99034.25;4988659;28;20037;-81
2022/02/21 08:18:09;;;;;;;29.20;1.90;;;;;;;0.76;56.10;99022.53;5016473;28;20034;-78
2022/02/21 08:20:35;;;;;;;15.43;2.30;;;;;;;0.69;56.20;99035.56;4980190;28;20049;-83
2022/02/21 08:23:01;;;;;;;11.80;1.30;;;;;;;1.06;55.65;99026.78;4996832;28;20037;-79
2022/02/21 08:25:27;;;;;;;16.15;1.45;;;;;;;0.65;56.19;99028.81;4993845;28;20033;-79
2022/02/21 08:27:52;;;;;;;14.65;2.00;;;;;;;0.75;56.73;99033.69;5020618;28;20226;-80
2022/02/21 08:30:21;;;;;;;16.23;3.95;;;;;;;0.03;58.43;99042.53;5005526;28;20044;-80
2022/02/21 08:32:47;;;;;;;9.25;1.85;;;;;;;0.53;57.35;99029.19;4975806;28;20136;-80
2022/02/21 08:35:13;;;;;;;16.33;1.35;;;;;;;0.92;56.33;99028.06;5018403;28;20040;-78
2022/02/21 08:37:40;;;;;;;24.98;2.30;;;;;;;0.54;57.54;99042.88;4997486;28;20030;-79
2022/02/21 08:40:08;;;;;;;11.65;1.25;;;;;;;0.94;56.84;99037.41;4986425;28;20125;-83
2022/02/21 08:42:35;;;;;;;8.93;0.93;;;;;;;1.08;56.02;99037.88;4995315;28;20124;-84
2022/02/21 08:45:01;;;;;;;20.08;2.03;;;;;;;1.30;55.96;99042.34;5008872;28;20171;-80
2022/02/21 08:47:26;;;;;;;17.92;1.83;;;;;;;1.37;55.53;99051.56;5008699;28;20050;-83
2022/02/21 08:49:52;;;;;;;25.25;2.15;;;;;;;1.24;56.03;99039.97;4997048;28;20041;-82
2022/02/21 08:52:18;;;;;;;11.50;1.40;;;;;;;0.63;57.50;99037.47;4975045;28;20067;-87
2022/02/21 08:54:45;;;;;;;15.20;2.05;;;;;;;0.70;57.08;99041.53;4978790;28;20024;-81
2022/02/21 08:57:10;;;;;;;18.25;2.88;;;;;;;1.49;55.79;99040.06;4978953;28;20042;-85
2022/02/21 08:59:36;;;;;;;29.45;2.42;;;;;;;0.83;57.21;99040.31;4996381;28;20026;-85
2022/02/21 09:02:02;;;;;;;19.77;2.22;;;;;;;0.94;56.00;99026.28;4980495;28;20036;-87
2022/02/21 09:04:28;;;;;;;11.80;1.67;;;;;;;0.54;56.79;99022.31;4986267;28;20029;-86
2022/02/21 09:06:54;;;;;;;14.85;2.50;;;;;;;1.42;55.29;99023.16;4984234;28;20052;-85
2022/02/21 09:09:22;;;;;;;7.32;1.58;;;;;;;0.66;57.51;99039.97;5003530;28;20048;-85
2022/02/21 09:11:49;;;;;;;25.67;2.20;;;;;;;0.94;57.02;99032.28;4988136;28;20077;-83
2022/02/21 09:14:16;;;;;;;14.68;1.55;;;;;;;1.46;55.87;99020.44;4999739;28;20031;-83
2022/02/21 09:16:42;;;;;;;5.10;0.98;;;;;;;1.51;55.35;99028.00;4986808;28;20034;-81
2022/02/21 09:19:08;;;;;;;16.92;1.65;;;;;;;1.04;56.73;99025.97;4987202;28;20061;-83
2022/02/21 09:21:34;;;;;;;10.82;1.58;;;;;;;1.80;55.42;99023.63;4986749;28;20033;-81
2022/02/21 09:23:59;;;;;;;26.17;1.85;;;;;;;1.19;56.99;99037.50;4999307;28;20061;-79
2022/02/21 09:26:27;;;;;;;24.10;2.53;;;;;;;0.96;58.56;99033.06;5005005;28;20041;-83
2022/02/21 09:28:52;;;;;;;16.05;1.48;;;;;;;1.26;57.25;99036.47;4994238;28;20064;-79
2022/02/21 09:31:18;;;;;;;16.48;1.42;;;;;;;1.09;58.41;99026.69;4990753;28;20038;-80
2022/02/21 09:33:44;;;;;;;11.95;1.05;;;;;;;1.25;58.03;99021.91;4996796;28;20093;-77
2022/02/21 09:36:11;;;;;;;13.80;0.82;;;;;;;0.71;58.85;99034.69;4984932;28;20045;-77
2022/02/21 09:38:36;;;;;;;15.68;0.90;;;;;;;1.30;58.24;99029.47;4970632;28;20042;-77
2022/02/21 09:41:04;;;;;;;9.27;0.70;;;;;;;1.05;58.95;99019.94;5002282;28;20565;-81
2022/02/21 09:43:30;;;;;;;11.75;1.90;;;;;;;0.81;59.78;99031.78;4997160;28;20054;-81
2022/02/21 09:46:05;;;;;;;9.25;0.95;;;;;;;0.64;60.21;99034.88;5001422;28;20029;-83
2022/02/21 09:48:33;;;;;;;10.10;0.88;;;;;;;0.27;61.22;99029.88;4991298;28;20052;-80
2022/02/21 09:51:00;;;;;;;12.30;1.23;;;;;;;0.09;61.59;99044.06;4999251;28;20045;-81
2022/02/21 09:53:35;;;;;;;8.65;1.25;;;;;;;0.59;60.03;99035.88;4994090;28;20076;-82
2022/02/21 09:56:01;;;;;;;7.05;0.57;;;;;;;0.31;61.39;99041.78;5006888;28;20029;-78
2022/02/21 09:58:27;;;;;;;10.82;0.65;;;;;;;-0.06;61.87;99045.28;4997396;28;20105;-79
2022/02/21 10:00:53;;;;;;;12.65;0.90;;;;;;;0.18;61.00;99051.53;4997041;28;20117;-82
2022/02/21 10:03:39;;;;;;;7.32;1.55;;;;;;;-0.16;61.34;99042.13;4989855;28;20515;-81
2022/02/21 10:06:18;;;;;;;5.70;0.65;;;;;;;0.03;61.23;99036.50;4990566;28;20351;-81
2022/02/21 10:08:50;;;;;;;7.15;0.98;;;;;;;-0.68;62.99;99034.81;4982637;28;20041;-78
2022/02/21 10:11:44;;;;;;;2.53;0.32;;;;;;;-0.72;62.79;99036.63;4984335;28;20037;-82
2022/02/21 10:14:13;;;;;;;4.00;0.55;;;;;;;-0.31;61.58;99019.41;4991473;28;20511;-80
2022/02/21 10:16:51;;;;;;;1.13;0.00;;;;;;;-1.02;62.99;99023.63;4993202;28;20508;-79
2022/02/21 10:19:20;;;;;;;0.47;0.00;;;;;;;-0.27;61.04;99028.72;4994861;28;20060;-79
2022/02/21 10:22:15;;;;;;;2.40;0.10;;;;;;;-0.11;60.95;99023.19;4999851;28;20038;-82
2022/02/21 10:24:48;;;;;;;3.10;0.47;;;;;;;-0.28;61.64;99028.75;5003422;28;20053;-79
2022/02/21 10:27:26;;;;;;;7.40;0.45;;;;;;;-0.37;60.88;99027.25;4983174;28;20048;-83
2022/02/21 10:29:59;;;;;;;3.83;0.28;;;;;;;-0.67;61.45;99021.97;5005537;28;20106;-82
2022/02/21 10:32:30;;;;;;;2.88;0.20;;;;;;;-0.85;61.86;99030.94;5005773;28;20132;-79
2022/02/21 10:35:17;;;;;;;2.67;0.65;;;;;;;-0.65;60.73;99021.94;4993163;28;20061;-80
2022/02/21 10:37:49;;;;;;;0.22;0.00;;;;;;;-1.02;61.22;99021.06;4986284;28;20762;-81
2022/02/21 10:40:19;;;;;;;3.78;0.10;;;;;;;-1.10;61.20;99012.66;5002384;28;20127;-80
2022/02/21 10:43:04;;;;;;;5.97;0.25;;;;;;;-1.02;60.62;99018.50;4953380;28;20038;-80
2022/02/21 10:45:31;;;;;;;0.17;0.00;;;;;;;-0.69;58.75;99010.06;5007808;28;20495;-81
2022/02/21 10:47:58;;;;;;;2.17;0.20;;;;;;;-1.22;59.73;99005.22;4941254;28;20129;-81
2022/02/21 10:50:23;;;;;;;0.45;0.10;;;;;;;-0.67;59.42;98998.88;4978806;28;20029;-83
2022/02/21 10:52:49;;;;;;;4.15;0.20;;;;;;;-0.97;60.29;98993.59;4983550;28;20197;-81
2022/02/21 10:55:15;;;;;;;0.45;0.00;;;;;;;-1.65;61.96;98985.63;4995498;28;20116;-82
2022/02/21 10:57:42;;;;;;;2.67;0.15;;;;;;;-1.04;61.00;98979.22;4992998;28;20046;-82
2022/02/21 11:00:13;;;;;;;4.70;0.20;;;;;;;-0.74;60.05;98976.81;4974109;28;20048;-79
2022/02/21 11:02:42;;;;;;;1.80;0.10;;;;;;;-1.10;62.18;98979.31;5017055;28;20092;-80
2022/02/21 11:05:09;;;;;;;0.38;0.10;;;;;;;-0.37;60.01;98974.19;4996487;28;20029;-81
2022/02/21 11:07:38;;;;;;;0.63;0.10;;;;;;;-0.42;60.25;98980.31;4976874;28;20042;-78
2022/02/21 11:10:05;;;;;;;1.67;0.22;;;;;;;-0.32;60.23;98980.94;4983304;28;20562;-81
2022/02/21 11:12:35;;;;;;;0.15;0.00;;;;;;;-0.43;60.51;98984.63;5002164;28;20582;-77
2022/02/21 11:15:02;;;;;;;3.00;0.10;;;;;;;-1.02;60.90;98979.19;5000193;28;20072;-78
2022/02/21 11:17:29;;;;;;;0.60;0.00;;;;;;;-1.17;61.95;98982.91;4997689;28;20059;-83
2022/02/21 11:19:55;;;;;;;0.35;0.00;;;;;;;-1.43;62.66;98986.84;4982363;28;20354;-78
2022/02/21 11:22:21;;;;;;;0.10;0.00;;;;;;;-1.24;61.69;98976.22;5011544;28;20049;-82
2022/02/21 11:24:54;;;;;;;2.78;0.10;;;;;;;-0.78;60.48;98977.78;4983644;28;20576;-78
2022/02/21 11:27:46;;;;;;;3.30;0.10;;;;;;;-1.54;62.28;98988.81;5000478;28;20053;-81
2022/02/21 11:30:18;;;;;;;0.32;0.20;;;;;;;-1.02;60.96;98981.75;4981296;28;20037;-82
2022/02/21 11:33:03;;;;;;;1.40;0.08;;;;;;;-1.15;60.87;98978.59;4968340;28;20037;-82